Time;durP1;ratioP1;P1;durP2;ratioP2;P2;SDS_P1;SDS_P2;PMS_P1;PMS_P2;Temp;Humidity;BMP_temperature;BMP_pressure;BME280_temperature;BME280_humidity;BME280_pressure;Samples;Min_cycle;Max_cycle;Signal;HPM_P1;HPM_P2
2023/04/26 00:01:11;;;;;;;10.52;4.75;;;;;;;-143.48;89.87;118439.88;5054686;28;20515;-32
2023/04/26 00:03:36;;;;;;;13.23;4.70;;;;;;;-143.48;90.14;118439.88;5055156;28;20033;-32
2023/04/26 00:06:08;;;;;;;11.10;4.97;;;;;;;-143.48;90.69;118439.88;5054406;28;20039;-32
2023/04/26 00:08:37;;;;;;;9.53;4.53;;;;;;;-143.48;90.51;118439.88;5054859;28;20081;-32
2023/04/26 00:11:02;;;;;;;10.00;4.70;;;;;;;-143.48;91.31;118439.88;5054148;28;20294;-32
2023/04/26 00:13:27;;;;;;;9.32;4.80;;;;;;;-143.48;91.31;118439.88;5054354;28;20017;-32
2023/04/26 00:15:53;;;;;;;12.93;5.07;;;;;;;-143.48;91.21;118439.88;5054434;28;20024;-32
2023/04/26 00:18:18;;;;;;;12.60;5.45;;;;;;;-143.48;91.07;118439.88;5054526;28;20024;-32
2023/04/26 00:20:43;;;;;;;10.90;5.50;;;;;;;-143.48;91.38;118439.88;5054429;28;20028;-32
2023/04/26 00:23:09;;;;;;;12.40;5.15;;;;;;;-143.48;91.43;118439.88;5054999;28;20025;-32
2023/04/26 00:25:35;;;;;;;17.65;6.55;;;;;;;-143.48;89.92;118439.88;5036237;28;20361;-31
2023/04/26 00:28:01;;;;;;;13.07;5.50;;;;;;;-143.48;89.85;118439.88;5054010;28;20107;-32
2023/04/26 00:30:26;;;;;;;11.60;5.38;;;;;;;-143.48;89.79;118439.88;5054196;28;20029;-32
2023/04/26 00:32:51;;;;;;;13.95;5.28;;;;;;;-143.48;89.81;118439.88;5054067;28;20360;-32
2023/04/26 00:35:17;;;;;;;18.77;5.43;;;;;;;-143.48;91.63;118439.88;5054042;28;20021;-32
2023/04/26 00:37:42;;;;;;;10.30;5.15;;;;;;;-143.48;92.09;118439.88;5054156;28;20116;-32
2023/04/26 00:40:09;;;;;;;11.43;5.03;;;;;;;-143.48;91.86;118439.88;5054032;28;20168;-32
2023/04/26 00:42:34;;;;;;;11.07;5.00;;;;;;;-143.48;91.77;118439.88;5053762;28;20095;-32
2023/04/26 00:44:59;;;;;;;13.75;5.15;;;;;;;-143.48;91.56;118439.88;5054347;28;20027;-32
2023/04/26 00:47:28;;;;;;;14.30;5.10;;;;;;;-143.48;91.74;118439.88;5053964;28;20044;-32
2023/04/26 00:49:53;;;;;;;9.98;5.15;;;;;;;-143.48;91.08;118439.88;5054182;28;20372;-33
2023/04/26 00:52:19;;;;;;;14.02;5.00;;;;;;;-143.48;91.07;118439.88;5053829;28;20025;-32
2023/04/26 00:54:44;;;;;;;9.73;4.75;;;;;;;-143.48;90.90;118439.88;5053690;28;20017;-32
2023/04/26 00:57:11;;;;;;;13.65;4.32;;;;;;;-143.48;90.14;118439.88;5053473;28;20415;-32
2023/04/26 00:59:36;;;;;;;9.40;4.47;;;;;;;-143.48;90.19;118439.88;5053446;28;20375;-32
2023/04/26 01:02:02;;;;;;;10.63;4.28;;;;;;;-143.48;91.04;118439.88;5053868;28;20024;-32
2023/04/26 01:04:29;;;;;;;10.05;3.70;;;;;;;-143.48;89.57;118439.88;5053355;28;20052;-32
2023/04/26 01:06:55;;;;;;;11.20;4.30;;;;;;;-143.48;89.44;118439.88;5053882;28;20020;-32
2023/04/26 01:09:21;;;;;;;8.27;3.78;;;;;;;-143.48;88.82;118439.88;5035467;28;20029;-33
2023/04/26 01:11:46;;;;;;;10.23;3.95;;;;;;;-143.48;88.65;118439.88;5053246;28;20076;-31
2023/04/26 01:14:13;;;;;;;6.97;3.47;;;;;;;-143.48;89.12;118439.88;5053296;28;20079;-32
2023/04/26 01:16:39;;;;;;;9.82;3.22;;;;;;;-143.48;88.79;118439.88;5053640;28;20098;-32
2023/04/26 01:19:11;;;;;;;7.28;3.10;;;;;;;-143.48;88.49;118439.88;5053550;28;20447;-32
2023/04/26 01:21:36;;;;;;;11.13;3.25;;;;;;;-143.48;88.44;118439.88;5053072;28;20029;-32
2023/04/26 01:24:02;;;;;;;9.10;3.22;;;;;;;-143.48;88.55;118439.88;5053528;28;20028;-32
2023/04/26 01:26:27;;;;;;;9.10;3.42;;;;;;;-143.48;88.52;118439.88;5053176;28;20021;-32
2023/04/26 01:28:53;;;;;;;11.50;3.10;;;;;;;-143.48;89.48;118439.88;5053081;28;20036;-31
2023/04/26 01:31:18;;;;;;;7.68;3.10;;;;;;;-143.48;89.33;118439.88;5053457;28;20032;-32
2023/04/26 01:33:43;;;;;;;7.80;3.35;;;;;;;-143.48;88.67;118439.88;5053208;28;20104;-32
2023/04/26 01:36:09;;;;;;;11.60;3.47;;;;;;;-143.48;88.63;118439.88;5053289;28;20091;-31
2023/04/26 01:38:34;;;;;;;10.10;3.55;;;;;;;-143.48;89.88;118439.88;5053303;28;20053;-32
2023/04/26 01:41:00;;;;;;;14.52;3.50;;;;;;;-143.48;90.64;118439.88;5053002;28;20462;-32
2023/04/26 01:43:25;;;;;;;9.20;3.80;;;;;;;-143.48;91.55;118439.88;5053561;28;20116;-32
2023/04/26 01:45:50;;;;;;;7.75;3.20;;;;;;;-143.48;89.77;118439.88;5053246;28;20021;-32
2023/04/26 01:48:16;;;;;;;8.85;3.28;;;;;;;-143.48;90.62;118439.88;5053030;28;20372;-32
2023/04/26 01:50:41;;;;;;;5.93;3.33;;;;;;;-143.48;91.11;118439.88;5052913;28;20032;-31
2023/04/26 01:53:06;;;;;;;6.78;3.15;;;;;;;-143.48;89.86;118439.88;5053211;28;20155;-32
2023/04/26 01:55:34;;;;;;;13.68;3.50;;;;;;;-143.48;90.57;118439.88;5052757;28;20025;-31
2023/04/26 01:58:00;;;;;;;6.85;3.35;;;;;;;-143.48;91.56;118439.88;5053403;28;20032;-32
2023/04/26 02:00:27;;;;;;;9.68;2.92;;;;;;;-143.48;90.68;118439.88;5053212;28;20013;-32
2023/04/26 02:02:56;;;;;;;7.13;2.72;;;;;;;-143.48;90.45;118439.88;5052740;28;20027;-32
2023/04/26 02:05:22;;;;;;;11.88;3.20;;;;;;;-143.48;91.29;118439.88;5052910;28;20028;-31
2023/04/26 02:07:48;;;;;;;12.70;3.45;;;;;;;-143.48;91.64;118439.88;5053142;28;20017;-32
2023/04/26 02:10:13;;;;;;;10.38;3.50;;;;;;;-143.48;91.09;118439.88;5052985;28;20056;-31
2023/04/26 02:12:38;;;;;;;8.45;3.97;;;;;;;-143.48;90.76;118439.88;5053255;28;20517;-32
2023/04/26 02:15:05;;;;;;;9.35;4.00;;;;;;;-143.48;90.66;118439.88;5053259;28;20029;-32
2023/04/26 02:17:30;;;;;;;9.45;3.90;;;;;;;-143.48;91.59;118439.88;5053043;28;20521;-32
2023/04/26 02:19:56;;;;;;;10.07;4.15;;;;;;;-143.48;92.00;118439.88;5052994;28;20017;-32
2023/04/26 02:22:23;;;;;;;6.82;3.40;;;;;;;-143.48;91.54;118439.88;5052944;28;20104;-32
2023/04/26 02:24:49;;;;;;;13.90;3.88;;;;;;;-143.48;91.96;118439.88;5052998;28;20052;-32
2023/04/26 02:27:14;;;;;;;8.07;4.50;;;;;;;-143.48;91.90;118439.88;5052915;28;20574;-32
2023/04/26 02:29:40;;;;;;;12.30;4.50;;;;;;;-143.48;91.65;118439.88;5052942;28;20043;-32
2023/04/26 02:32:06;;;;;;;8.07;4.00;;;;;;;-143.48;91.96;118439.88;5054297;28;20057;-32
2023/04/26 02:34:31;;;;;;;12.13;3.83;;;;;;;-143.48;92.60;118439.88;5056415;28;20383;-32
2023/04/26 02:36:57;;;;;;;10.18;4.13;;;;;;;-143.48;92.20;118439.88;5056640;28;20023;-32
2023/04/26 02:39:22;;;;;;;10.38;4.03;;;;;;;-143.48;92.50;118439.88;5056086;28;20025;-32
2023/04/26 02:41:47;;;;;;;10.45;4.65;;;;;;;-143.48;92.42;118439.88;5055977;28;20060;-32
2023/04/26 02:44:13;;;;;;;10.18;4.22;;;;;;;-143.48;91.52;118439.88;5056224;28;20044;-32
2023/04/26 02:46:38;;;;;;;9.23;4.05;;;;;;;-143.48;91.85;118439.88;5056671;28;20040;-32
2023/04/26 02:49:04;;;;;;;9.82;4.40;;;;;;;-143.48;92.70;118439.88;5056305;28;20051;-32
2023/04/26 02:51:31;;;;;;;12.32;4.30;;;;;;;-143.48;92.24;118439.88;5056135;28;20075;-32
2023/04/26 02:53:56;;;;;;;10.95;4.15;;;;;;;-143.48;92.56;118439.88;5056093;28;20032;-32
2023/04/26 02:56:22;;;;;;;9.40;4.03;;;;;;;-143.48;92.24;118439.88;5055621;28;20048;-32
2023/04/26 02:58:47;;;;;;;9.23;4.35;;;;;;;-143.48;92.45;118439.88;5056009;28;20063;-32
2023/04/26 03:01:13;;;;;;;7.13;3.85;;;;;;;-143.48;92.91;118439.88;5056176;28;20025;-32
2023/04/26 03:03:38;;;;;;;9.65;3.95;;;;;;;-143.48;93.66;118439.88;5055872;28;20017;-33
2023/04/26 03:06:04;;;;;;;9.60;4.40;;;;;;;-143.48;92.73;118439.88;5056081;28;20056;-32
2023/04/26 03:08:29;;;;;;;9.82;4.13;;;;;;;-143.48;92.72;118439.88;5055797;28;20375;-31
2023/04/26 03:10:55;;;;;;;10.13;4.25;;;;;;;-143.48;92.74;118439.88;5055621;28;20080;-31
2023/04/26 03:13:22;;;;;;;10.57;4.30;;;;;;;-143.48;92.17;118439.88;5055417;28;20048;-32
2023/04/26 03:15:48;;;;;;;11.13;4.07;;;;;;;-143.48;92.63;118439.88;5055622;28;20025;-32
2023/04/26 03:18:14;;;;;;;10.88;4.15;;;;;;;-143.48;92.45;118439.88;5055554;28;20017;-31
2023/04/26 03:20:41;;;;;;;8.93;4.13;;;;;;;-143.48;92.30;118439.88;5055615;28;20032;-32
2023/04/26 03:23:06;;;;;;;12.88;4.05;;;;;;;-143.48;92.50;118439.88;5055504;28;20020;-32
2023/04/26 03:25:32;;;;;;;13.35;5.43;;;;;;;-143.48;92.43;118439.88;5037393;28;20021;-32
2023/04/26 03:27:58;;;;;;;10.73;4.28;;;;;;;-143.48;92.45;118439.88;5055337;28;20024;-32
2023/04/26 03:30:23;;;;;;;10.93;4.60;;;;;;;-143.48;92.16;118439.88;5055055;28;20025;-32
2023/04/26 03:32:49;;;;;;;13.95;4.85;;;;;;;-143.48;92.99;118439.88;5055885;28;20067;-32
2023/04/26 03:35:14;;;;;;;17.83;5.35;;;;;;;-143.48;92.31;118439.88;5055259;28;20051;-32
2023/04/26 03:37:39;;;;;;;14.65;4.90;;;;;;;-143.48;91.67;118439.88;5054911;28;20029;-32
2023/04/26 03:40:07;;;;;;;12.82;5.05;;;;;;;-143.48;91.48;118439.88;5055177;28;20033;-32
2023/04/26 03:42:33;;;;;;;11.52;5.30;;;;;;;-143.48;91.36;118439.88;5054526;28;20071;-32
2023/04/26 03:44:58;;;;;;;9.90;4.95;;;;;;;-143.48;91.51;118439.88;5054245;28;20025;-32
2023/04/26 03:47:23;;;;;;;9.75;4.50;;;;;;;-143.48;91.71;118439.88;5054785;28;20025;-32
2023/04/26 03:49:48;;;;;;;16.27;5.30;;;;;;;-143.48;92.26;118439.88;5055100;28;20054;-32
2023/04/26 03:52:14;;;;;;;11.07;4.95;;;;;;;-143.48;92.24;118439.88;5036751;28;20029;-32
2023/04/26 03:54:39;;;;;;;11.48;5.25;;;;;;;-143.48;92.21;118439.88;5055000;28;20025;-32
2023/04/26 03:57:05;;;;;;;11.48;4.97;;;;;;;-143.48;92.06;118439.88;5054861;28;20111;-32
2023/04/26 03:59:31;;;;;;;14.55;5.28;;;;;;;-143.48;92.06;118439.88;5054606;28;20463;-32
2023/04/26 04:01:56;;;;;;;12.82;5.13;;;;;;;-143.48;92.73;118439.88;5054770;28;20048;-32
2023/04/26 04:04:22;;;;;;;15.90;5.05;;;;;;;-143.48;92.24;118439.88;5054468;28;20028;-32
2023/04/26 04:06:47;;;;;;;11.93;5.22;;;;;;;-143.48;92.01;118439.88;5054425;28;20112;-32
2023/04/26 04:09:13;;;;;;;11.18;5.00;;;;;;;-143.48;92.01;118439.88;5055011;28;20071;-32
2023/04/26 04:11:38;;;;;;;16.92;5.80;;;;;;;-143.48;92.17;118439.88;5054172;28;20049;-32
2023/04/26 04:14:03;;;;;;;10.75;5.85;;;;;;;-143.48;92.19;118439.88;5054504;28;20445;-31
2023/04/26 04:16:29;;;;;;;12.30;5.60;;;;;;;-143.48;92.24;118439.88;5054472;28;20375;-32
2023/04/26 04:18:54;;;;;;;12.07;5.22;;;;;;;-143.48;92.39;118439.88;5054740;28;20028;-32
2023/04/26 04:21:19;;;;;;;9.73;5.20;;;;;;;-143.48;92.40;118439.88;5054419;28;20028;-32
2023/04/26 04:23:45;;;;;;;15.57;5.57;;;;;;;-143.48;92.63;118439.88;5054273;28;20114;-33
2023/04/26 04:26:11;;;;;;;11.68;5.55;;;;;;;-143.48;92.58;118439.88;5054204;28;20044;-32
2023/04/26 04:28:38;;;;;;;9.52;5.75;;;;;;;-143.48;92.13;118439.88;5054200;28;20021;-32
2023/04/26 04:31:04;;;;;;;14.95;6.07;;;;;;;-143.48;91.99;118439.88;5053931;28;20472;-32
2023/04/26 04:33:29;;;;;;;14.35;6.13;;;;;;;-143.48;92.06;118439.88;5054055;28;20112;-32
2023/04/26 04:35:54;;;;;;;12.18;6.40;;;;;;;-143.48;92.66;118439.88;5053965;28;20424;-33
2023/04/26 04:38:20;;;;;;;18.90;6.50;;;;;;;-143.48;92.55;118439.88;5054366;28;20029;-33
2023/04/26 04:40:49;;;;;;;15.65;6.88;;;;;;;-143.48;92.80;118439.88;5054075;28;20025;-32
2023/04/26 04:43:14;;;;;;;19.45;6.97;;;;;;;-143.48;92.22;118439.88;5053819;28;20120;-32
2023/04/26 04:45:40;;;;;;;14.60;6.25;;;;;;;-143.48;91.35;118439.88;5053984;28;20450;-33
2023/04/26 04:48:08;;;;;;;12.25;6.25;;;;;;;-143.48;91.78;118439.88;5035835;28;20028;-33
2023/04/26 04:50:34;;;;;;;15.85;6.47;;;;;;;-143.48;91.41;118439.88;5036461;28;20029;-33
2023/04/26 04:53:03;;;;;;;14.15;6.32;;;;;;;-143.48;91.31;118439.88;5036484;28;20379;-33
2023/04/26 04:55:29;;;;;;;11.38;5.78;;;;;;;-143.48;91.05;118439.88;5052646;28;20029;-33
2023/04/26 04:57:54;;;;;;;15.10;5.97;;;;;;;-143.48;91.72;118439.88;5053620;28;20096;-32
2023/04/26 05:00:20;;;;;;;13.93;5.90;;;;;;;-143.48;91.73;118439.88;5053246;28;20021;-32
2023/04/26 05:02:45;;;;;;;11.25;5.80;;;;;;;-143.48;91.38;118439.88;5053606;28;20025;-32
2023/04/26 05:05:11;;;;;;;11.13;5.90;;;;;;;-143.48;90.89;118439.88;5052912;28;20541;-32
2023/04/26 05:07:36;;;;;;;15.73;6.07;;;;;;;-143.48;90.96;118439.88;5053107;28;20067;-32
2023/04/26 05:10:03;;;;;;;12.20;5.95;;;;;;;-143.48;89.94;118439.88;5053650;28;20445;-32
2023/04/26 05:12:28;;;;;;;20.88;6.32;;;;;;;-143.48;90.03;118439.88;5053426;28;20033;-32
2023/04/26 05:14:53;;;;;;;14.00;6.05;;;;;;;-143.48;89.96;118439.88;5053676;28;20028;-32
2023/04/26 05:17:19;;;;;;;12.98;6.70;;;;;;;-143.48;89.06;118439.88;5053127;28;20033;-32
2023/04/26 05:19:44;;;;;;;11.70;5.70;;;;;;;-143.48;88.84;118439.88;5053386;28;20055;-32
2023/04/26 05:22:10;;;;;;;15.32;6.20;;;;;;;-143.48;88.24;118439.88;5053351;28;20440;-32
2023/04/26 05:24:35;;;;;;;13.98;6.45;;;;;;;-143.48;87.82;118439.88;5053410;28;20357;-33
2023/04/26 05:27:03;;;;;;;10.25;5.97;;;;;;;-143.48;87.73;118439.88;5052997;28;20021;-32
2023/04/26 05:29:29;;;;;;;13.70;5.88;;;;;;;-143.48;86.58;118439.88;5052945;28;20142;-32
2023/04/26 05:31:55;;;;;;;9.82;5.97;;;;;;;-143.48;86.32;118439.88;5052931;28;20017;-32
2023/04/26 05:34:21;;;;;;;17.35;5.90;;;;;;;-143.48;86.83;118439.88;5053027;28;20079;-32
2023/04/26 05:36:50;;;;;;;14.00;5.88;;;;;;;-143.48;87.73;118439.88;5053448;28;20459;-32
2023/04/26 05:39:16;;;;;;;14.88;6.32;;;;;;;-143.48;88.07;118439.88;5035169;28;20116;-32
2023/04/26 05:41:42;;;;;;;13.40;6.00;;;;;;;-143.48;84.93;118439.88;5053162;28;20528;-32
2023/04/26 05:44:07;;;;;;;14.27;5.72;;;;;;;-143.48;85.35;118439.88;5053000;28;20021;-33
2023/04/26 05:46:32;;;;;;;13.30;5.60;;;;;;;-143.48;83.12;118439.88;5034970;28;20025;-32
2023/04/26 05:48:58;;;;;;;14.07;5.50;;;;;;;-143.48;82.17;118439.88;5053234;28;20108;-32
2023/04/26 05:51:23;;;;;;;12.30;6.15;;;;;;;-143.48;83.33;118439.88;5052829;28;20036;-32
2023/04/26 05:53:48;;;;;;;13.48;6.03;;;;;;;-143.48;77.01;118439.88;5052905;28;20068;-32
2023/04/26 05:56:14;;;;;;;12.00;5.57;;;;;;;-143.48;64.28;118439.88;5051626;28;20481;-33
2023/04/26 05:58:39;;;;;;;13.55;5.22;;;;;;;-143.48;54.71;118439.88;5052887;28;20524;-32
2023/04/26 06:01:05;;;;;;;9.45;4.85;;;;;;;-143.48;54.42;118439.88;5052775;28;20379;-33
2023/04/26 06:03:30;;;;;;;9.80;4.78;;;;;;;-143.48;59.65;118439.88;5052766;28;20049;-33
2023/04/26 06:05:55;;;;;;;10.18;3.35;;;;;;;-143.48;56.90;118439.88;5053179;28;20024;-32
2023/04/26 06:08:20;;;;;;;6.38;3.00;;;;;;;-143.48;63.69;118439.88;5056307;28;20371;-33
2023/04/26 06:10:46;;;;;;;8.00;3.00;;;;;;;-143.48;60.48;118439.88;5056520;28;20132;-33
2023/04/26 06:13:11;;;;;;;9.75;3.35;;;;;;;-143.48;67.55;118439.88;5056718;28;20096;-32
2023/04/26 06:15:37;;;;;;;10.68;5.18;;;;;;;-143.48;67.90;118439.88;5056457;28;20033;-32
2023/04/26 06:18:03;;;;;;;11.63;4.90;;;;;;;-143.48;69.70;118439.88;5057028;28;20099;-32
2023/04/26 06:20:29;;;;;;;8.48;4.57;;;;;;;-143.48;72.00;118439.88;5056745;28;20364;-32
2023/04/26 06:22:54;;;;;;;11.18;3.83;;;;;;;-143.48;71.99;118439.88;5056609;28;20021;-32
2023/04/26 06:25:19;;;;;;;8.10;3.88;;;;;;;-143.48;69.08;118439.88;5056135;28;20021;-32
2023/04/26 06:27:45;;;;;;;8.75;3.38;;;;;;;-143.48;61.13;118439.88;5055779;28;20104;-31
2023/04/26 06:30:10;;;;;;;8.05;3.30;;;;;;;-143.48;69.15;118439.88;5056559;28;20481;-33
2023/04/26 06:32:38;;;;;;;5.68;2.90;;;;;;;-143.48;70.10;118439.88;5056621;28;20029;-32
2023/04/26 06:35:03;;;;;;;7.80;3.47;;;;;;;-143.48;69.01;118439.88;5038136;28;20102;-32
2023/04/26 06:37:29;;;;;;;8.50;3.20;;;;;;;-143.48;68.54;118439.88;5056676;28;20467;-36
2023/04/26 06:39:54;;;;;;;7.18;2.80;;;;;;;-143.48;68.04;118439.88;5056251;28;20099;-32
2023/04/26 06:42:21;;;;;;;8.65;3.35;;;;;;;-143.48;68.36;118439.88;5056411;28;20028;-33
2023/04/26 06:44:46;;;;;;;8.63;2.85;;;;;;;-143.48;69.92;118439.88;5038209;28;20036;-33
2023/04/26 06:47:12;;;;;;;9.90;3.22;;;;;;;-143.48;68.59;118439.88;5055533;28;20029;-33
2023/04/26 06:49:37;;;;;;;6.07;3.00;;;;;;;-143.48;69.44;118439.88;5055569;28;20039;-33
2023/04/26 06:52:03;;;;;;;6.70;3.22;;;;;;;-143.48;69.04;118439.88;5037576;28;20051;-33
2023/04/26 06:54:30;;;;;;;8.90;3.00;;;;;;;-143.48;70.23;118439.88;5037626;28;20507;-33
2023/04/26 06:56:55;;;;;;;7.93;3.05;;;;;;;-143.48;68.51;118439.88;5021042;28;20048;-33
2023/04/26 06:59:21;;;;;;;10.82;3.33;;;;;;;-143.48;65.64;118439.88;5037259;28;20384;-33
2023/04/26 07:01:47;;;;;;;11.85;3.45;;;;;;;-143.48;65.85;118439.88;5055267;28;20032;-32
2023/04/26 07:04:13;;;;;;;6.32;2.60;;;;;;;-143.48;63.54;118439.88;5055592;28;20021;-32
2023/04/26 07:06:38;;;;;;;12.18;3.47;;;;;;;-143.48;64.71;118439.88;5055731;28;20493;-32
2023/04/26 07:09:04;;;;;;;9.98;3.20;;;;;;;-143.48;63.34;118439.88;5055627;28;20033;-32
2023/04/26 07:11:30;;;;;;;9.45;3.08;;;;;;;-143.48;64.28;118439.88;5054049;28;20132;-33
2023/04/26 07:13:55;;;;;;;13.90;3.40;;;;;;;-143.48;63.70;118439.88;5053313;28;20070;-32
2023/04/26 07:16:21;;;;;;;11.50;2.80;;;;;;;-143.48;61.74;118439.88;5052137;28;20394;-32
2023/04/26 07:18:47;;;;;;;13.60;2.35;;;;;;;-143.48;61.65;118439.88;5052527;28;20021;-33
2023/04/26 07:21:13;;;;;;;3.80;1.65;;;;;;;-143.48;59.39;118439.88;5051985;28;20082;-33
2023/04/26 07:23:38;;;;;;;5.07;2.17;;;;;;;-143.48;59.19;118439.88;5052126;28;20104;-33
2023/04/26 07:26:03;;;;;;;6.93;2.20;;;;;;;-143.48;58.37;118439.88;5033417;28;20021;-32
2023/04/26 07:28:32;;;;;;;4.72;1.90;;;;;;;-143.48;56.43;118439.88;5052988;28;20028;-32
2023/04/26 07:30:59;;;;;;;8.65;2.08;;;;;;;-143.48;58.18;118439.88;5035018;28;20534;-33
2023/04/26 07:33:24;;;;;;;6.80;2.30;;;;;;;-143.48;58.15;118439.88;5053084;28;20032;-32
2023/04/26 07:35:57;;;;;;;5.22;2.20;;;;;;;-143.48;58.96;118439.88;5053208;28;20021;-32
2023/04/26 07:38:23;;;;;;;8.40;1.98;;;;;;;-143.48;60.23;118439.88;5053519;28;20017;-32
2023/04/26 07:40:49;;;;;;;5.68;1.80;;;;;;;-143.48;59.33;118439.88;5037127;28;20166;-32
2023/04/26 07:43:15;;;;;;;6.75;1.70;;;;;;;-143.48;58.77;118439.88;5055145;28;20028;-32
2023/04/26 07:45:41;;;;;;;8.55;1.80;;;;;;;-143.48;63.85;118439.88;5054909;28;20021;-32
2023/04/26 07:48:06;;;;;;;6.90;2.20;;;;;;;-143.48;61.93;118439.88;5054774;28;20369;-32
2023/04/26 07:50:32;;;;;;;4.18;2.10;;;;;;;-143.48;64.25;118439.88;5054732;28;20037;-35
2023/04/26 07:52:57;;;;;;;6.45;2.83;;;;;;;-143.48;64.81;118439.88;5054888;28;20028;-37
2023/04/26 07:55:23;;;;;;;10.32;2.95;;;;;;;-143.48;66.97;118439.88;5054844;28;20031;-36
2023/04/26 07:57:48;;;;;;;13.90;2.92;;;;;;;-143.48;67.06;118439.88;5036824;28;20118;-35
2023/04/26 08:00:15;;;;;;;9.85;3.10;;;;;;;-143.48;67.02;118439.88;5054829;28;20021;-36
2023/04/26 08:02:41;;;;;;;8.48;2.92;;;;;;;-143.48;67.74;118439.88;5054700;28;20031;-36
2023/04/26 08:05:06;;;;;;;8.65;2.83;;;;;;;-143.48;66.68;118439.88;5054662;28;20021;-36
2023/04/26 08:07:32;;;;;;;8.55;2.80;;;;;;;-143.48;67.40;118439.88;5055187;28;20134;-39
2023/04/26 08:09:57;;;;;;;5.10;2.38;;;;;;;-143.48;66.96;118439.88;5054552;28;20033;-36
2023/04/26 08:12:22;;;;;;;13.02;2.50;;;;;;;-143.48;66.93;118439.88;5054616;28;20031;-36
2023/04/26 08:14:48;;;;;;;5.85;2.33;;;;;;;-143.48;65.86;118439.88;5054146;28;20029;-36
2023/04/26 08:17:13;;;;;;;5.93;2.38;;;;;;;-143.48;64.40;118439.88;5053988;28;20052;-36
2023/04/26 08:19:38;;;;;;;10.60;2.70;;;;;;;-143.48;64.63;118439.88;5054960;28;20025;-35
2023/04/26 08:22:04;;;;;;;7.03;2.22;;;;;;;-143.48;64.45;118439.88;5054437;28;20083;-36
2023/04/26 08:24:31;;;;;;;9.18;2.50;;;;;;;-143.48;61.88;118439.88;5054075;28;20024;-37
2023/04/26 08:26:57;;;;;;;8.10;2.20;;;;;;;-143.48;62.95;118439.88;5036162;28;20476;-36
2023/04/26 08:29:23;;;;;;;6.38;2.00;;;;;;;-143.48;60.96;118439.88;5053754;28;20025;-36
2023/04/26 08:31:49;;;;;;;7.78;2.53;;;;;;;-143.48;61.93;118439.88;5053987;28;20033;-36
2023/04/26 08:34:14;;;;;;;6.03;2.22;;;;;;;-143.48;63.54;118439.88;5053867;28;20025;-36
2023/04/26 08:36:40;;;;;;;6.22;2.00;;;;;;;-143.48;61.84;118439.88;5053647;28;20529;-36
2023/04/26 08:39:07;;;;;;;6.88;2.08;;;;;;;-143.48;60.35;118439.88;5053736;28;20113;-36
2023/04/26 08:41:41;;;;;;;7.65;2.00;;;;;;;-143.48;59.09;118439.88;5053666;28;20029;-37
2023/04/26 08:44:07;;;;;;;6.40;1.95;;;;;;;-143.48;57.93;118439.88;5053968;28;20048;-36
2023/04/26 08:46:43;;;;;;;6.18;2.97;;;;;;;-143.48;58.52;118439.88;5053705;28;20087;-36
2023/04/26 08:49:20;;;;;;;4.93;1.70;;;;;;;-143.48;56.95;118439.88;5053599;28;20365;-37
2023/04/26 08:51:46;;;;;;;6.57;1.40;;;;;;;-143.48;53.33;118439.88;5053634;28;20036;-37
2023/04/26 08:54:14;;;;;;;4.60;1.75;;;;;;;-143.48;52.01;118439.88;5053647;28;20025;-37
2023/04/26 08:56:40;;;;;;;4.80;1.42;;;;;;;-143.48;55.22;118439.88;5053519;28;20111;-37
2023/04/26 08:59:08;;;;;;;5.65;1.92;;;;;;;-143.48;52.16;118439.88;5053743;28;20021;-36
2023/04/26 09:01:33;;;;;;;6.38;1.98;;;;;;;-143.48;52.28;118439.88;5054090;28;20028;-37
2023/04/26 09:03:59;;;;;;;4.65;1.48;;;;;;;-143.48;48.82;118439.88;5053923;28;20036;-37
2023/04/26 09:06:27;;;;;;;7.13;1.90;;;;;;;-143.48;47.33;118439.88;5053731;28;20411;-38
2023/04/26 09:08:54;;;;;;;7.28;1.45;;;;;;;-143.48;47.03;118439.88;5053336;28;20036;-38
2023/04/26 09:11:19;;;;;;;10.88;1.80;;;;;;;-143.48;47.85;118439.88;5053132;28;20057;-35
2023/04/26 09:13:44;;;;;;;3.53;1.48;;;;;;;-143.48;47.88;118439.88;5053625;28;20036;-37
2023/04/26 09:16:10;;;;;;;4.47;1.33;;;;;;;-143.48;47.76;118439.88;5053470;28;20435;-37
2023/04/26 09:18:48;;;;;;;3.35;1.20;;;;;;;-143.48;47.79;118439.88;5053527;28;20025;-36
2023/04/26 09:21:16;;;;;;;11.60;1.80;;;;;;;-143.48;49.60;118439.88;5053369;28;20024;-36
2023/04/26 09:24:08;;;;;;;5.50;1.65;;;;;;;-143.48;50.66;118439.88;5053428;28;20020;-37
2023/04/26 09:26:33;;;;;;;7.18;1.70;;;;;;;-143.48;50.20;118439.88;5050597;28;20491;-37
2023/04/26 09:29:16;;;;;;;3.20;1.50;;;;;;;-143.48;49.24;118439.88;5053526;28;20067;-38
2023/04/26 09:31:43;;;;;;;6.47;1.70;;;;;;;-143.48;51.60;118439.88;5053593;28;20024;-36
2023/04/26 09:34:11;;;;;;;5.43;1.70;;;;;;;-143.48;50.47;118439.88;5035257;28;20033;-37
2023/04/26 09:36:52;;;;;;;5.55;1.90;;;;;;;-143.48;50.28;118439.88;5053320;28;20047;-38
2023/04/26 09:39:30;;;;;;;7.47;2.13;;;;;;;-143.48;51.28;118439.88;5053060;28;20021;-38
2023/04/26 09:41:56;;;;;;;5.80;2.22;;;;;;;-143.48;52.34;118439.88;5054518;28;20383;-37
2023/04/26 09:44:22;;;;;;;7.40;2.40;;;;;;;-143.48;53.78;118439.88;5057190;28;20467;-37
2023/04/26 09:47:04;;;;;;;5.63;2.38;;;;;;;-143.48;54.14;118439.88;5057290;28;20518;-37
2023/04/26 09:49:32;;;;;;;7.32;2.28;;;;;;;-143.48;54.36;118439.88;5057308;28;20444;-37
2023/04/26 09:52:05;;;;;;;10.95;2.22;;;;;;;-143.48;53.93;118439.88;5057159;28;20525;-38
2023/04/26 09:54:57;;;;;;;4.75;1.90;;;;;;;-143.48;51.26;118439.88;5056850;28;20025;-36
2023/04/26 09:57:22;;;;;;;5.88;2.00;;;;;;;-143.48;52.08;118439.88;5054584;28;20040;-38
2023/04/26 09:59:53;;;;;;;7.82;2.17;;;;;;;-143.48;50.53;118439.88;5057631;28;20028;-36
2023/04/26 10:02:27;;;;;;;4.30;1.50;;;;;;;-143.48;48.28;118439.88;5007347;28;20387;-36
2023/04/26 10:04:53;;;;;;;;;;;;;;;-143.48;48.01;118439.88;5038543;28;20112;-37
2023/04/26 10:07:21;;;;;;;8.07;1.92;;;;;;;-143.48;49.47;118439.88;5038988;28;19916;-38
2023/04/26 10:09:48;;;;;;;4.65;1.50;;;;;;;-143.48;48.62;118439.88;5038658;28;20057;-36
2023/04/26 10:12:18;;;;;;;6.82;1.60;;;;;;;-143.48;47.32;118439.88;5038784;28;20029;-36
2023/04/26 10:14:45;;;;;;;6.25;1.70;;;;;;;-143.48;48.85;118439.88;5056492;28;20021;-37
2023/04/26 10:17:11;;;;;;;10.43;1.70;;;;;;;-143.48;46.44;118439.88;5056706;28;20511;-38
2023/04/26 10:19:39;;;;;;;3.03;1.50;;;;;;;-143.48;47.27;118439.88;5056427;28;20506;-37
2023/04/26 10:22:09;;;;;;;2.75;1.25;;;;;;;-143.48;46.69;118439.88;5056745;28;20427;-36
2023/04/26 10:24:35;;;;;;;5.28;1.38;;;;;;;-143.48;45.71;118439.88;5039210;28;20025;-37
2023/04/26 10:27:03;;;;;;;3.67;1.50;;;;;;;-143.48;47.30;118439.88;5056713;28;20021;-38
2023/04/26 10:29:53;;;;;;;5.05;1.55;;;;;;;-143.48;46.19;118439.88;5056593;28;20048;-38
2023/04/26 10:32:22;;;;;;;6.22;1.52;;;;;;;-143.48;46.24;118439.88;5056868;28;20060;-37
2023/04/26 10:35:13;;;;;;;6.32;1.40;;;;;;;-143.48;45.40;118439.88;5056431;28;20025;-38
2023/04/26 10:38:00;;;;;;;7.05;1.83;;;;;;;-143.48;46.53;118439.88;5056245;28;20017;-37
2023/04/26 10:40:32;;;;;;;5.20;1.55;;;;;;;-143.48;46.52;118439.88;5056187;28;20365;-38
2023/04/26 10:43:10;;;;;;;5.60;1.25;;;;;;;-143.48;45.76;118439.88;5055827;28;20021;-37
2023/04/26 10:45:37;;;;;;;3.58;1.35;;;;;;;-143.48;45.03;118439.88;5055846;28;20485;-38
2023/04/26 10:48:31;;;;;;;6.18;1.50;;;;;;;-143.48;46.73;118439.88;5055543;28;20025;-38
2023/04/26 10:51:07;;;;;;;4.45;1.50;;;;;;;-143.48;46.07;118439.88;5055706;28;20480;-37
2023/04/26 10:53:47;;;;;;;5.55;1.50;;;;;;;-143.48;44.94;118439.88;5055654;28;20159;-37
2023/04/26 10:56:22;;;;;;;3.05;1.38;;;;;;;-143.48;43.36;118439.88;5055629;28;20464;-36
2023/04/26 10:58:47;;;;;;;7.35;1.52;;;;;;;-143.48;44.55;118439.88;5055854;28;20059;-36
2023/04/26 11:01:17;;;;;;;7.45;1.50;;;;;;;-143.48;45.38;118439.88;5055695;28;20028;-36
2023/04/26 11:04:03;;;;;;;7.18;1.80;;;;;;;-143.48;42.32;118439.88;5038228;28;20031;-38
2023/04/26 11:06:54;;;;;;;7.35;1.60;;;;;;;-143.48;42.44;118439.88;5056126;28;20017;-37